Terminal Aerodrome Forecast
Issued by NWS Newport/Morehead City, NC

Home | Current Version | Previous Version | Text Only | Print | Product List | Glossary Off
Versions: 1 2 3 4 5 6 7 8 9 10 11 12 13 14 15

000
FTUS42 KMHX 011404 AAA
TAFEWN
TAF AMD
KEWN 011404Z 0114/0212 26007KT P6SM OVC012
     FM011600 22009G16KT P6SM SCT030
     FM012300 21005KT P6SM SKC=

USA.gov is the U.S. government's official web portal to all federal, state and local government web resources and services.